Time;durP1;ratioP1;P1;durP2;ratioP2;P2;SDS_P1;SDS_P2;PMS_P1;PMS_P2;Temp;Humidity;BMP_temperature;BMP_pressure;BME280_temperature;BME280_humidity;BME280_pressure;Samples;Min_cycle;Max_cycle;Signal;HPM_P1;HPM_P2
2022/09/25 00:00:13;;;;;;;12.73;10.13;;;;;;;15.02;86.51;100004.69;5055487;28;20404;-74
2022/09/25 00:02:38;;;;;;;11.83;10.63;;;;;;;15.06;86.08;99994.81;5055158;28;20421;-74
2022/09/25 00:05:03;;;;;;;14.33;9.67;;;;;;;15.07;85.87;100004.66;5055416;28;20389;-73
2022/09/25 00:07:29;;;;;;;12.73;9.75;;;;;;;15.07;85.80;100001.09;5057004;28;20431;-73
2022/09/25 00:09:54;;;;;;;11.70;9.77;;;;;;;15.02;85.99;99999.22;5055292;28;20888;-74
2022/09/25 00:12:19;;;;;;;11.00;9.83;;;;;;;15.02;85.90;99999.22;5055233;28;20438;-73
2022/09/25 00:14:49;;;;;;;10.87;9.70;;;;;;;15.03;85.81;99991.84;5055230;28;20384;-73
2022/09/25 00:17:14;;;;;;;11.25;9.95;;;;;;;15.02;86.21;99990.22;5054971;28;20425;-74
2022/09/25 00:19:51;;;;;;;11.57;9.80;;;;;;;15.04;85.81;99988.84;5055049;28;20888;-74
2022/09/25 00:22:18;;;;;;;11.77;10.15;;;;;;;15.05;85.96;99995.09;5055323;28;20389;-74
2022/09/25 00:24:43;;;;;;;12.97;9.70;;;;;;;15.01;85.79;99985.88;5055157;28;20393;-74
2022/09/25 00:27:09;;;;;;;11.93;10.17;;;;;;;15.04;85.93;99985.31;5054947;28;20395;-73
2022/09/25 00:29:35;;;;;;;11.37;10.03;;;;;;;15.05;85.83;99981.44;5054923;28;20400;-73
2022/09/25 00:32:01;;;;;;;13.85;10.43;;;;;;;15.06;85.80;99985.81;5054813;28;20468;-74
2022/09/25 00:34:27;;;;;;;13.60;10.68;;;;;;;15.10;85.45;99975.16;5054790;28;20963;-74
2022/09/25 00:36:52;;;;;;;11.13;10.03;;;;;;;15.14;85.47;99989.84;5054714;28;20808;-74
2022/09/25 00:39:17;;;;;;;13.13;10.77;;;;;;;15.14;85.66;99976.22;5054816;28;20386;-73
2022/09/25 00:41:43;;;;;;;10.30;9.40;;;;;;;15.09;85.41;99979.78;5054729;28;20852;-73
2022/09/25 00:44:45;;;;;;;11.50;9.70;;;;;;;14.99;85.87;99977.13;5054505;28;20386;-73
2022/09/25 00:47:14;;;;;;;12.15;9.23;;;;;;;14.91;86.05;99981.31;5054580;28;20404;-73
2022/09/25 00:49:40;;;;;;;11.20;9.63;;;;;;;14.90;86.00;99970.69;5054612;28;20397;-73
2022/09/25 00:52:09;;;;;;;11.10;9.13;;;;;;;14.91;85.79;99972.31;5054446;28;20377;-73
2022/09/25 00:54:43;;;;;;;11.93;9.23;;;;;;;14.88;86.18;99975.63;5054443;28;20922;-73
2022/09/25 00:57:14;;;;;;;10.20;9.05;;;;;;;14.92;86.09;99965.72;5057498;28;20441;-73
2022/09/25 00:59:44;;;;;;;12.05;8.95;;;;;;;14.96;85.77;99966.81;5054326;28;20866;-73
2022/09/25 01:02:15;;;;;;;11.68;8.85;;;;;;;14.99;85.50;99967.03;5054341;28;20415;-74
2022/09/25 01:04:47;;;;;;;13.80;9.00;;;;;;;15.01;85.53;99955.84;5053978;28;20417;-74
2022/09/25 01:07:13;;;;;;;8.98;8.18;;;;;;;14.99;85.52;99952.59;5054154;28;20416;-73
2022/09/25 01:09:39;;;;;;;11.25;9.02;;;;;;;14.99;85.36;99958.84;5054090;28;20421;-74
2022/09/25 01:12:05;;;;;;;9.82;8.82;;;;;;;15.01;85.28;99951.22;5054260;28;20390;-73
2022/09/25 01:14:32;;;;;;;11.00;9.17;;;;;;;15.00;85.09;99965.94;5062220;28;20445;-73
2022/09/25 01:17:11;;;;;;;10.00;8.95;;;;;;;14.98;85.64;99961.88;5054047;28;20555;-73
2022/09/25 01:19:57;;;;;;;12.30;9.17;;;;;;;14.99;85.20;99956.13;5054000;28;20393;-74
2022/09/25 01:22:38;;;;;;;11.10;8.80;;;;;;;14.94;85.62;99964.38;5054051;28;20386;-73
2022/09/25 01:25:25;;;;;;;10.18;9.02;;;;;;;14.86;85.94;99958.69;5053876;28;20398;-73
2022/09/25 01:28:07;;;;;;;10.13;9.05;;;;;;;14.78;86.14;99962.03;5053773;28;20856;-73
2022/09/25 01:30:39;;;;;;;10.25;9.15;;;;;;;14.71;86.69;99964.28;5056846;28;20388;-73
2022/09/25 01:33:16;;;;;;;9.02;8.13;;;;;;;14.73;86.45;99964.78;5056060;28;20393;-73
2022/09/25 01:35:50;;;;;;;10.25;8.82;;;;;;;14.77;86.58;99963.13;5032609;28;20407;-73
2022/09/25 01:38:21;;;;;;;9.73;8.73;;;;;;;14.87;86.08;99963.06;5052997;28;20456;-73
2022/09/25 01:40:52;;;;;;;9.23;8.25;;;;;;;14.92;85.63;99957.53;5053513;28;20390;-73
2022/09/25 01:43:35;;;;;;;10.50;8.65;;;;;;;14.99;85.13;99969.78;5053392;28;20386;-73
2022/09/25 01:46:07;;;;;;;9.95;8.30;;;;;;;14.99;85.27;99964.31;5053463;28;20776;-74
2022/09/25 01:48:35;;;;;;;11.77;8.80;;;;;;;14.97;85.22;99960.25;5053420;28;20385;-74
2022/09/25 01:51:18;;;;;;;11.30;8.85;;;;;;;14.98;85.21;99967.34;5053458;28;20476;-74
2022/09/25 01:53:50;;;;;;;8.57;7.82;;;;;;;14.92;85.27;99963.00;5053379;28;20389;-73
2022/09/25 01:56:30;;;;;;;9.68;8.45;;;;;;;14.86;85.59;99964.97;5053248;28;20439;-73
2022/09/25 01:59:17;;;;;;;11.45;8.02;;;;;;;14.88;85.48;99961.97;5053345;28;20394;-74
2022/09/25 02:01:44;;;;;;;9.75;8.13;;;;;;;14.89;85.51;99960.84;5045843;28;20412;-74
2022/09/25 02:04:17;;;;;;;9.90;8.73;;;;;;;14.94;85.46;99964.38;5052958;28;20900;-74
2022/09/25 02:06:46;;;;;;;10.15;8.15;;;;;;;14.96;85.09;99964.88;5062193;28;20393;-73
2022/09/25 02:09:38;;;;;;;10.27;7.50;;;;;;;14.95;84.89;99957.78;5053059;28;20741;-73
2022/09/25 02:12:46;;;;;;;8.93;7.87;;;;;;;14.88;85.18;99956.50;5052977;28;20397;-74
2022/09/25 02:15:20;;;;;;;9.23;8.07;;;;;;;14.89;85.30;99945.31;4972029;28;20429;-73
2022/09/25 02:20:35;;;;;;;9.07;7.97;;;;;;;14.88;85.25;99945.59;5028885;28;20436;-73
2022/09/25 02:23:17;;;;;;;10.15;8.25;;;;;;;14.90;85.07;99949.66;5066719;28;20423;-74
2022/09/25 02:25:59;;;;;;;9.17;8.33;;;;;;;14.94;85.37;99942.53;5052839;28;20389;-74
2022/09/25 02:28:25;;;;;;;11.63;8.30;;;;;;;14.97;84.80;99943.88;5034745;28;20491;-73
2022/09/25 02:30:55;;;;;;;11.50;9.07;;;;;;;14.97;84.84;99941.97;5052598;28;20425;-73
2022/09/25 02:33:20;;;;;;;9.90;8.90;;;;;;;14.92;85.03;99946.63;5052921;28;20406;-74
2022/09/25 02:35:45;;;;;;;10.93;8.73;;;;;;;14.91;85.00;99945.84;5052548;28;20961;-73
2022/09/25 02:38:11;;;;;;;12.67;9.07;;;;;;;14.91;84.97;99951.31;5052413;28;20764;-73
2022/09/25 02:40:47;;;;;;;10.40;8.75;;;;;;;14.83;85.48;99946.44;5057664;28;20876;-73
2022/09/25 02:43:23;;;;;;;10.85;9.43;;;;;;;14.81;85.83;99945.09;5051629;28;20397;-73
2022/09/25 02:46:07;;;;;;;9.85;8.88;;;;;;;14.86;85.54;99948.59;5052280;28;20431;-74
2022/09/25 02:48:48;;;;;;;10.13;9.10;;;;;;;14.87;85.19;99952.16;5047661;28;20458;-73
2022/09/25 02:51:27;;;;;;;11.47;9.50;;;;;;;14.82;85.35;99946.75;5052274;28;20470;-74
2022/09/25 02:54:11;;;;;;;10.43;9.43;;;;;;;14.83;85.45;99946.44;5052248;28;20861;-73
2022/09/25 02:56:53;;;;;;;11.20;9.50;;;;;;;14.85;85.35;99938.78;5052211;28;20496;-73
2022/09/25 02:59:26;;;;;;;12.68;9.85;;;;;;;14.84;85.34;99937.16;5052103;28;20401;-73
2022/09/25 03:01:53;;;;;;;14.20;9.77;;;;;;;14.81;85.48;99942.38;5052013;28;20392;-74
2022/09/25 03:04:19;;;;;;;15.20;10.70;;;;;;;14.76;85.96;99942.41;5051919;28;20445;-73
2022/09/25 03:06:45;;;;;;;12.88;10.27;;;;;;;14.78;85.98;99942.94;5033942;28;20955;-73
2022/09/25 03:09:14;;;;;;;11.93;10.63;;;;;;;14.76;85.76;99940.50;5052015;28;20860;-73
2022/09/25 03:11:42;;;;;;;11.73;10.30;;;;;;;14.71;86.21;99940.56;5050586;28;20389;-73
2022/09/25 03:14:07;;;;;;;14.27;11.18;;;;;;;14.69;86.16;99937.28;5050647;28;20798;-74
2022/09/25 03:17:03;;;;;;;12.35;10.70;;;;;;;14.77;86.30;99941.31;5051545;28;20480;-73
2022/09/25 03:19:29;;;;;;;12.02;10.13;;;;;;;14.79;85.92;99937.19;5035350;28;20406;-73
2022/09/25 03:21:54;;;;;;;13.30;10.63;;;;;;;14.76;86.05;99942.41;5051784;28;20435;-73
2022/09/25 03:24:20;;;;;;;13.37;10.80;;;;;;;14.72;86.27;99935.91;5051728;28;20404;-74
2022/09/25 03:26:45;;;;;;;12.52;10.80;;;;;;;14.72;86.50;99939.44;5051723;28;20381;-74
2022/09/25 03:29:12;;;;;;;13.00;10.43;;;;;;;14.73;86.18;99937.53;5051542;28;20397;-73
2022/09/25 03:31:37;;;;;;;14.05;10.80;;;;;;;14.72;86.52;99944.88;5050338;28;20386;-73
2022/09/25 03:34:03;;;;;;;13.80;11.38;;;;;;;14.72;86.63;99938.63;5051549;28;20718;-74
2022/09/25 03:36:30;;;;;;;12.57;11.30;;;;;;;14.67;86.53;99935.94;5033733;28;20392;-73
2022/09/25 03:38:58;;;;;;;13.48;11.23;;;;;;;14.62;86.93;99930.53;5051446;28;20914;-74
2022/09/25 03:41:28;;;;;;;14.35;12.48;;;;;;;14.61;87.03;99939.81;5051555;28;20400;-74
2022/09/25 03:43:55;;;;;;;14.55;12.13;;;;;;;14.62;87.16;99934.03;5051322;28;20389;-73
2022/09/25 03:46:24;;;;;;;15.97;13.43;;;;;;;14.67;86.78;99938.66;5051372;28;20396;-74
2022/09/25 03:48:51;;;;;;;19.90;13.87;;;;;;;14.71;86.55;99939.72;5051465;28;20401;-74
2022/09/25 03:51:17;;;;;;;15.93;13.40;;;;;;;14.76;86.32;99936.94;5051418;28;20901;-73
2022/09/25 03:53:43;;;;;;;16.30;12.95;;;;;;;14.77;86.36;99944.03;5051445;28;20397;-74
2022/09/25 03:56:15;;;;;;;19.43;13.83;;;;;;;14.74;86.52;99950.06;5051358;28;20879;-73
2022/09/25 03:58:41;;;;;;;16.70;12.88;;;;;;;14.64;86.58;99941.97;5051378;28;20764;-73
2022/09/25 04:01:06;;;;;;;14.85;13.00;;;;;;;14.62;87.26;99944.97;5049993;28;20398;-74
2022/09/25 04:03:32;;;;;;;15.53;13.20;;;;;;;14.63;86.91;99948.50;5050933;28;20815;-73
2022/09/25 04:06:03;;;;;;;23.03;13.30;;;;;;;14.68;86.79;99945.75;5051299;28;20389;-73
2022/09/25 04:08:30;;;;;;;15.20;13.18;;;;;;;14.71;86.82;99937.81;5051284;28;20397;-73
2022/09/25 04:11:00;;;;;;;14.73;12.27;;;;;;;14.69;86.79;99941.91;5051231;28;20394;-73
2022/09/25 04:13:28;;;;;;;17.58;13.95;;;;;;;14.70;86.56;99938.09;5051122;28;20392;-73
2022/09/25 04:15:55;;;;;;;15.70;14.07;;;;;;;14.72;86.77;99942.16;5051175;28;20429;-74
2022/09/25 04:18:20;;;;;;;15.40;12.90;;;;;;;14.70;86.72;99940.81;5051163;28;20437;-74
2022/09/25 04:20:45;;;;;;;16.93;13.30;;;;;;;14.66;86.72;99947.94;5055808;28;20424;-73
2022/09/25 04:23:11;;;;;;;18.87;13.50;;;;;;;14.66;87.14;99937.03;5053869;28;20781;-73
2022/09/25 04:25:36;;;;;;;17.93;13.70;;;;;;;14.63;86.92;99934.88;5051300;28;20477;-73
2022/09/25 04:28:01;;;;;;;17.33;12.97;;;;;;;14.58;87.42;99943.91;5051124;28;20389;-73
2022/09/25 04:30:28;;;;;;;15.57;13.53;;;;;;;14.55;87.36;99937.09;5051165;28;20397;-73
2022/09/25 04:35:39;;;;;;;14.98;12.70;;;;;;;14.55;87.12;99930.84;5051306;28;20436;-74
2022/09/25 04:38:04;;;;;;;12.32;11.10;;;;;;;14.51;87.00;99936.06;5049792;28;20421;-74
2022/09/25 04:40:30;;;;;;;13.23;10.90;;;;;;;14.48;87.54;99942.06;5049495;28;20409;-74
2022/09/25 04:43:02;;;;;;;13.35;10.90;;;;;;;14.42;87.51;99942.41;5050751;28;20413;-74
2022/09/25 04:45:29;;;;;;;13.55;10.32;;;;;;;14.43;87.53;99942.09;5049884;28;20842;-73
2022/09/25 04:47:57;;;;;;;12.27;10.30;;;;;;;14.42;87.51;99945.91;5053152;28;20749;-73
2022/09/25 04:50:23;;;;;;;14.10;10.05;;;;;;;14.40;87.45;99941.84;5054284;28;20481;-73
2022/09/25 04:52:50;;;;;;;13.88;10.82;;;;;;;14.41;87.44;99936.13;5053049;28;20393;-73
2022/09/25 04:55:16;;;;;;;13.02;9.50;;;;;;;14.40;87.48;99948.13;5055439;28;20397;-73
2022/09/25 04:57:42;;;;;;;11.45;10.23;;;;;;;14.36;87.57;99946.22;5054329;28;20419;-73
2022/09/25 05:00:07;;;;;;;11.40;10.27;;;;;;;14.36;87.36;99946.22;5053141;28;20385;-73
2022/09/25 05:02:33;;;;;;;13.25;9.88;;;;;;;14.33;87.47;99952.22;5053977;28;20860;-74
2022/09/25 05:04:58;;;;;;;11.55;10.35;;;;;;;14.32;87.70;99945.16;5054336;28;20400;-74
2022/09/25 05:07:23;;;;;;;12.93;10.57;;;;;;;14.31;87.83;99952.50;5048307;28;20398;-73
2022/09/25 05:09:49;;;;;;;12.03;10.03;;;;;;;14.33;87.88;99947.59;5046903;28;20385;-74
2022/09/25 05:12:14;;;;;;;13.83;11.10;;;;;;;14.39;87.34;99951.13;5044901;28;20453;-74
2022/09/25 05:14:41;;;;;;;11.80;10.10;;;;;;;14.39;87.28;99959.31;5053906;28;20389;-73
2022/09/25 05:17:07;;;;;;;10.85;9.75;;;;;;;14.43;87.34;99949.47;5048732;28;20409;-73
2022/09/25 05:19:33;;;;;;;12.70;10.02;;;;;;;14.47;86.86;99948.63;5053940;28;20927;-73
2022/09/25 05:21:59;;;;;;;12.25;9.38;;;;;;;14.48;86.88;99946.72;5054149;28;20408;-73
2022/09/25 05:24:24;;;;;;;13.63;10.13;;;;;;;14.48;86.73;99944.81;5053680;28;20907;-73
2022/09/25 05:26:49;;;;;;;12.63;9.90;;;;;;;14.45;86.59;99952.72;5032815;28;20403;-73
2022/09/25 05:29:14;;;;;;;12.60;10.17;;;;;;;14.42;87.07;99954.09;5044294;28;20382;-73
2022/09/25 05:31:41;;;;;;;12.17;9.30;;;;;;;14.44;87.20;99948.38;5053877;28;20811;-73
2022/09/25 05:34:08;;;;;;;14.80;10.00;;;;;;;14.48;86.84;99949.44;5050618;28;20822;-74
2022/09/25 05:36:33;;;;;;;9.98;8.98;;;;;;;14.50;86.71;99948.06;5051586;28;20895;-73
2022/09/25 05:38:59;;;;;;;11.27;9.50;;;;;;;14.49;86.70;99942.88;5050350;28;20425;-73
2022/09/25 05:41:25;;;;;;;12.27;9.25;;;;;;;14.46;86.65;99944.25;5034560;28;20401;-73
2022/09/25 05:43:50;;;;;;;10.70;8.35;;;;;;;14.44;86.82;99943.72;5035337;28;20428;-73
2022/09/25 05:46:15;;;;;;;9.77;8.77;;;;;;;14.41;86.69;99943.47;5056734;28;20750;-73
2022/09/25 05:48:41;;;;;;;10.60;8.55;;;;;;;14.44;86.71;99953.81;5053498;28;20394;-73
2022/09/25 05:51:07;;;;;;;10.50;8.67;;;;;;;14.44;86.54;99949.19;5053339;28;20741;-74
2022/09/25 05:53:32;;;;;;;9.07;8.20;;;;;;;14.46;86.48;99949.72;5052767;28;20396;-73
2022/09/25 05:56:04;;;;;;;9.18;8.18;;;;;;;14.42;86.56;99943.19;5052849;28;20444;-74
2022/09/25 05:58:30;;;;;;;8.70;7.90;;;;;;;14.38;86.84;99941.31;5053062;28;20892;-73
2022/09/25 06:01:02;;;;;;;8.73;7.85;;;;;;;14.40;86.76;99948.13;5041276;28;20398;-73
2022/09/25 06:03:28;;;;;;;10.13;8.65;;;;;;;14.38;86.50;99960.41;5049921;28;20406;-73
2022/09/25 06:05:58;;;;;;;9.18;8.10;;;;;;;14.35;87.05;99961.78;5053217;28;20385;-73
2022/09/25 06:08:24;;;;;;;9.30;7.73;;;;;;;14.38;87.01;99971.31;5035254;28;20393;-73
2022/09/25 06:10:52;;;;;;;9.60;8.57;;;;;;;14.36;87.05;99962.56;5053147;28;20400;-74
2022/09/25 06:13:17;;;;;;;8.75;7.88;;;;;;;14.40;86.80;99967.19;5052243;28;20395;-74
2022/09/25 06:15:43;;;;;;;9.90;8.15;;;;;;;14.46;86.88;99971.50;5048871;28;20480;-73
2022/09/25 06:18:08;;;;;;;9.07;8.13;;;;;;;14.52;86.72;99970.38;5051473;28;20459;-74
2022/09/25 06:20:34;;;;;;;14.07;8.63;;;;;;;14.55;86.17;99972.53;5052281;28;20745;-74
2022/09/25 06:23:00;;;;;;;12.05;8.63;;;;;;;14.57;86.42;99971.47;5052052;28;20796;-74
2022/09/25 06:25:31;;;;;;;9.90;8.05;;;;;;;14.62;86.31;99974.97;5052430;28;20472;-74
2022/09/25 06:27:59;;;;;;;11.63;8.47;;;;;;;14.64;86.15;99975.50;5052330;28;20382;-74
2022/09/25 06:30:27;;;;;;;9.18;8.27;;;;;;;14.67;85.83;99979.56;5051924;28;20481;-73
2022/09/25 06:32:56;;;;;;;8.93;7.43;;;;;;;14.69;85.74;99978.19;5042317;28;20391;-74
2022/09/25 06:35:22;;;;;;;11.70;8.20;;;;;;;14.72;85.67;99971.38;5036864;28;20378;-73
2022/09/25 06:37:47;;;;;;;11.32;8.30;;;;;;;14.74;85.69;99980.06;5052140;28;20478;-73
2022/09/25 06:40:12;;;;;;;9.57;8.50;;;;;;;14.68;85.61;99973.84;5046562;28;20441;-74
2022/09/25 06:42:38;;;;;;;9.50;8.53;;;;;;;14.67;85.97;99977.66;5050250;28;20397;-74
2022/09/25 06:45:03;;;;;;;11.47;8.93;;;;;;;14.71;85.62;99983.38;5049446;28;20474;-74
2022/09/25 06:47:28;;;;;;;11.57;8.53;;;;;;;14.74;85.40;99980.88;5052408;28;20423;-73
2022/09/25 06:49:54;;;;;;;10.87;8.93;;;;;;;14.75;85.53;99984.44;5051109;28;20498;-73
2022/09/25 06:52:19;;;;;;;9.90;8.30;;;;;;;14.75;85.43;99987.94;5052377;28;20729;-73
2022/09/25 06:54:44;;;;;;;12.83;9.17;;;;;;;14.69;85.23;99980.91;5051875;28;20393;-74
2022/09/25 06:57:11;;;;;;;10.97;8.87;;;;;;;14.71;85.31;99988.81;5050329;28;20405;-74
2022/09/25 06:59:37;;;;;;;8.93;7.70;;;;;;;14.74;85.19;99974.63;5051421;28;20938;-74
2022/09/25 07:03:43;;;;;;;8.47;7.67;;;;;;;14.72;85.16;99977.63;5052243;28;20381;-73
2022/09/25 07:04:50;;;;;;;10.98;8.05;;;;;;;14.69;85.31;99980.09;5051795;28;20895;-73
2022/09/25 07:07:19;;;;;;;11.00;7.65;;;;;;;14.72;85.58;99974.09;5051709;28;20389;-74
2022/09/25 07:09:48;;;;;;;11.30;8.73;;;;;;;14.73;85.54;99973.78;5050903;28;20575;-74
2022/09/25 07:12:17;;;;;;;12.10;8.95;;;;;;;14.80;85.07;99976.22;5041477;28;20482;-73
2022/09/25 07:14:45;;;;;;;11.63;8.90;;;;;;;14.78;84.94;99981.13;5004522;28;20425;-74
2022/09/25 07:17:11;;;;;;;11.00;9.57;;;;;;;14.72;85.38;99977.63;5048874;28;20437;-73
2022/09/25 07:19:36;;;;;;;11.30;9.37;;;;;;;14.71;85.46;99981.47;5044680;28;20499;-73
2022/09/25 07:22:03;;;;;;;11.23;8.88;;;;;;;14.73;85.53;99984.72;5033235;28;20744;-74
2022/09/25 07:24:28;;;;;;;9.73;8.73;;;;;;;14.74;85.51;99986.34;5051654;28;20531;-74
2022/09/25 07:26:54;;;;;;;10.77;9.67;;;;;;;14.77;85.70;99980.31;5033463;28;20421;-74
2022/09/25 07:29:19;;;;;;;11.17;9.53;;;;;;;14.78;85.51;99978.41;5056536;28;20421;-75
2022/09/25 07:31:44;;;;;;;10.05;8.73;;;;;;;14.82;85.32;99984.94;5049357;28;20764;-74
2022/09/25 07:34:11;;;;;;;14.40;10.03;;;;;;;14.87;84.98;99982.97;5045661;28;20405;-74
2022/09/25 07:36:38;;;;;;;13.52;9.73;;;;;;;14.92;85.20;99985.66;5046642;28;20482;-74
2022/09/25 07:39:03;;;;;;;11.80;9.75;;;;;;;15.00;84.65;99990.50;5049988;28;20505;-74
2022/09/25 07:41:29;;;;;;;10.70;9.53;;;;;;;15.04;84.11;99983.41;5050188;28;20415;-74
2022/09/25 07:43:56;;;;;;;10.80;9.63;;;;;;;14.99;84.64;99985.31;5050058;28;20405;-75
2022/09/25 07:46:22;;;;;;;14.95;10.93;;;;;;;15.01;84.49;99981.25;5055128;28;20485;-74
2022/09/25 07:48:49;;;;;;;13.48;10.23;;;;;;;15.00;84.63;99981.50;5049210;28;20413;-74
2022/09/25 07:51:14;;;;;;;13.27;10.43;;;;;;;15.04;84.59;99990.75;5035433;28;20467;-74
2022/09/25 07:53:40;;;;;;;12.80;10.77;;;;;;;15.10;84.20;99986.88;5034003;28;20897;-74
2022/09/25 07:56:05;;;;;;;12.68;10.95;;;;;;;15.15;84.08;99983.31;5049767;28;20394;-74
2022/09/25 07:58:30;;;;;;;13.40;10.83;;;;;;;15.25;84.06;99981.28;5049597;28;20501;-74
2022/09/25 08:01:00;;;;;;;13.47;10.70;;;;;;;15.32;83.71;99976.31;5050891;28;20428;-73
2022/09/25 08:03:27;;;;;;;14.20;10.43;;;;;;;15.49;83.25;99973.97;5050278;28;20405;-74
2022/09/25 08:06:10;;;;;;;12.93;11.17;;;;;;;15.63;82.47;99973.28;5050608;28;20444;-74
2022/09/25 08:08:36;;;;;;;12.73;10.95;;;;;;;15.71;82.09;99981.66;5032906;28;20393;-74
2022/09/25 08:11:05;;;;;;;12.40;11.07;;;;;;;15.80;81.28;99982.69;5038201;28;20452;-74
2022/09/25 08:13:32;;;;;;;15.10;12.38;;;;;;;15.92;80.69;99979.53;5050197;28;20389;-73
2022/09/25 08:15:57;;;;;;;13.63;11.88;;;;;;;16.03;80.06;99976.38;5051130;28;20485;-74
2022/09/25 08:18:22;;;;;;;13.63;11.33;;;;;;;16.17;79.50;99972.94;5047110;28;20420;-74
2022/09/25 08:20:47;;;;;;;13.23;11.90;;;;;;;16.28;79.70;99971.69;5054920;28;20393;-74
2022/09/25 08:23:13;;;;;;;14.37;12.20;;;;;;;16.39;79.09;99975.91;5053707;28;20736;-74
2022/09/25 08:25:38;;;;;;;13.18;11.38;;;;;;;16.41;78.59;99979.97;5055114;28;20449;-74
2022/09/25 08:28:03;;;;;;;13.70;12.13;;;;;;;16.36;78.56;99987.44;5050880;28;20397;-74
2022/09/25 08:30:29;;;;;;;14.93;12.20;;;;;;;16.22;79.06;99976.41;5051642;28;20416;-74
2022/09/25 08:32:54;;;;;;;14.00;11.90;;;;;;;16.19;78.83;99981.66;5057586;28;20464;-73
2022/09/25 08:35:20;;;;;;;15.70;12.43;;;;;;;16.17;79.07;99979.19;5055363;28;20725;-73
2022/09/25 08:37:47;;;;;;;13.70;12.30;;;;;;;16.06;79.42;99989.47;5059239;28;20480;-74
2022/09/25 08:40:24;;;;;;;14.73;11.38;;;;;;;16.02;79.94;99982.13;5048116;28;20390;-74
2022/09/25 08:42:52;;;;;;;13.82;11.85;;;;;;;15.93;80.06;99987.44;5053966;28;20871;-73
2022/09/25 08:51:33;;;;;;;12.75;10.18;;;;;;;15.76;80.77;99989.81;5043517;28;20391;-74
2022/09/25 08:53:59;;;;;;;13.57;9.90;;;;;;;15.68;81.08;99993.16;5032357;28;20390;-74
2022/09/25 08:56:27;;;;;;;13.30;10.00;;;;;;;15.67;80.82;99983.38;5054305;28;20533;-73
2022/09/25 08:59:03;;;;;;;11.43;10.05;;;;;;;15.61;81.46;99992.69;5053933;28;20424;-74
2022/09/25 09:01:42;;;;;;;11.23;9.93;;;;;;;15.59;81.61;99983.97;5053593;28;20425;-74
2022/09/25 09:04:30;;;;;;;11.40;9.93;;;;;;;15.57;82.00;99984.28;5053778;28;20405;-74
2022/09/25 09:07:07;;;;;;;10.20;9.20;;;;;;;15.69;81.81;99988.53;5053979;28;20439;-74
2022/09/25 09:09:41;;;;;;;10.63;9.57;;;;;;;15.84;80.88;99977.44;5053053;28;20895;-74
2022/09/25 09:12:14;;;;;;;11.53;9.60;;;;;;;15.86;81.08;99983.41;5053818;28;20440;-73
2022/09/25 09:14:46;;;;;;;9.90;9.00;;;;;;;16.01;80.46;99978.56;5054057;28;20448;-73
2022/09/25 09:17:17;;;;;;;11.18;9.50;;;;;;;16.10;80.03;99985.03;5052370;28;20406;-74
2022/09/25 09:19:45;;;;;;;9.77;8.88;;;;;;;16.11;79.48;99980.38;5050408;28;20484;-74
2022/09/25 09:22:13;;;;;;;11.20;9.18;;;;;;;16.06;79.76;99988.66;5047958;28;20892;-74
2022/09/25 09:25:16;;;;;;;10.07;8.70;;;;;;;15.99;80.08;99991.72;5040703;28;20424;-73
2022/09/25 09:28:02;;;;;;;10.63;8.95;;;;;;;16.04;79.99;99996.31;5055108;28;20412;-73
2022/09/25 09:30:42;;;;;;;10.90;9.65;;;;;;;16.20;80.02;99997.75;5050662;28;20420;-74
2022/09/25 09:33:48;;;;;;;9.27;8.48;;;;;;;16.53;78.95;99990.50;5052662;28;20409;-73
2022/09/25 09:36:32;;;;;;;11.33;8.73;;;;;;;16.63;78.27;99989.56;5003226;28;20408;-74
2022/09/25 09:39:13;;;;;;;9.48;8.52;;;;;;;16.74;77.61;99988.28;5052462;28;21026;-74
2022/09/25 09:42:08;;;;;;;12.15;9.43;;;;;;;16.99;77.02;99985.94;5046158;28;20460;-74
2022/09/25 09:44:50;;;;;;;10.95;8.88;;;;;;;17.12;76.42;99985.19;5044602;28;20392;-73
2022/09/25 09:47:45;;;;;;;9.38;8.23;;;;;;;17.50;75.27;99972.22;5053185;28;20405;-73
2022/09/25 09:50:10;;;;;;;9.93;7.95;;;;;;;18.58;72.17;99973.31;5049275;28;20496;-72
2022/09/25 09:52:41;;;;;;;10.40;8.00;;;;;;;19.78;67.87;99969.75;5044515;28;20491;-72
2022/09/25 09:55:21;;;;;;;8.88;7.30;;;;;;;20.75;63.32;99974.06;5028942;28;20804;-73
2022/09/25 09:57:51;;;;;;;8.10;7.30;;;;;;;20.80;63.33;99974.69;5053065;28;20409;-73
2022/09/25 10:00:19;;;;;;;8.63;7.40;;;;;;;21.21;61.97;99977.75;5051652;28;20398;-73
2022/09/25 10:03:09;;;;;;;8.68;7.50;;;;;;;20.48;63.35;99969.66;5052054;28;20410;-73
2022/09/25 10:06:02;;;;;;;9.07;7.75;;;;;;;20.02;64.23;99978.44;5052320;28;20451;-73
2022/09/25 10:08:28;;;;;;;10.50;8.13;;;;;;;19.67;65.09;99970.03;5041234;28;20406;-73
2022/09/25 10:10:54;;;;;;;10.38;7.38;;;;;;;19.70;65.08;99968.59;5047567;28;20391;-73
2022/09/25 10:13:22;;;;;;;9.07;7.30;;;;;;;19.79;64.80;99963.94;5052722;28;20411;-74
2022/09/25 10:16:15;;;;;;;10.20;8.10;;;;;;;19.50;65.41;99964.44;5051073;28;20428;-74
2022/09/25 10:18:56;;;;;;;8.33;7.53;;;;;;;19.21;66.03;99966.84;5058021;28;20902;-73
2022/09/25 10:21:45;;;;;;;10.20;8.47;;;;;;;20.18;63.45;99965.84;5051820;28;20551;-74
2022/09/25 10:24:50;;;;;;;9.90;7.70;;;;;;;20.34;61.70;99958.78;5052537;28;20393;-74
2022/09/25 10:27:19;;;;;;;7.85;7.05;;;;;;;20.07;62.04;99961.78;5047404;28;20756;-73
2022/09/25 10:29:45;;;;;;;8.02;6.97;;;;;;;19.52;63.04;99955.91;5051965;28;20409;-73
2022/09/25 10:32:10;;;;;;;11.10;7.37;;;;;;;18.85;65.57;99964.16;5052246;28;20397;-73
2022/09/25 10:34:38;;;;;;;10.85;7.13;;;;;;;18.51;66.78;99963.88;5050083;28;20951;-73
2022/09/25 10:37:19;;;;;;;8.02;7.22;;;;;;;18.26;68.23;99975.38;5034028;28;20548;-74
2022/09/25 10:40:00;;;;;;;7.95;7.25;;;;;;;18.21;68.27;99970.81;5051658;28;20405;-74
2022/09/25 10:42:32;;;;;;;8.82;7.95;;;;;;;17.94;68.83;99966.19;5036601;28;20453;-74
2022/09/25 10:44:58;;;;;;;9.65;8.63;;;;;;;17.68;69.32;99967.81;5048379;28;20467;-74
2022/09/25 10:50:25;;;;;;;13.20;9.00;;;;;;;17.44;70.96;99978.91;5052344;28;20400;-74
2022/09/25 10:53:00;;;;;;;11.38;8.95;;;;;;;17.26;72.43;99971.53;5051726;28;20404;-74
2022/09/25 10:55:40;;;;;;;12.05;9.70;;;;;;;17.06;73.97;99982.84;5051697;28;20744;-73
2022/09/25 10:58:11;;;;;;;12.02;9.13;;;;;;;16.98;74.79;99976.13;5052199;28;20408;-74
2022/09/25 11:00:52;;;;;;;10.82;9.73;;;;;;;16.82;75.83;99980.22;5032384;28;20407;-74
2022/09/25 11:03:24;;;;;;;10.98;9.88;;;;;;;16.75;76.26;99988.00;5050399;28;20420;-74
2022/09/25 11:05:54;;;;;;;12.63;10.18;;;;;;;16.72;76.43;99983.13;5052066;28;20473;-74
2022/09/25 11:08:22;;;;;;;11.82;10.18;;;;;;;16.61;77.17;99981.63;5051966;28;20374;-74
2022/09/25 11:10:55;;;;;;;16.73;10.90;;;;;;;16.58;77.39;99994.00;5051612;28;20393;-74
2022/09/25 11:13:25;;;;;;;13.20;11.73;;;;;;;16.56;77.64;99992.66;5048824;28;20784;-73
2022/09/25 11:15:55;;;;;;;13.27;10.80;;;;;;;16.56;77.81;99998.13;5047509;28;20416;-74
2022/09/25 11:18:41;;;;;;;15.63;12.03;;;;;;;16.57;78.00;99995.09;5049503;28;20428;-73
2022/09/25 11:21:17;;;;;;;15.23;12.50;;;;;;;16.57;78.28;99999.75;5042523;28;21195;-74
2022/09/25 11:24:02;;;;;;;14.23;12.73;;;;;;;16.53;78.63;99999.47;5049938;28;20528;-74
2022/09/25 11:26:34;;;;;;;14.57;12.45;;;;;;;16.55;78.72;100000.06;5048410;28;20439;-75
2022/09/25 11:29:20;;;;;;;14.40;12.10;;;;;;;16.52;78.94;100000.63;5050250;28;21091;-74
2022/09/25 11:32:14;;;;;;;16.13;12.32;;;;;;;16.48;79.40;99996.84;5050767;28;20419;-73
2022/09/25 11:35:18;;;;;;;13.65;10.80;;;;;;;16.45;79.47;99991.13;5043303;28;20412;-74
2022/09/25 11:38:12;;;;;;;12.20;10.88;;;;;;;16.51;79.25;99984.47;5018845;28;20416;-74
2022/09/25 11:41:11;;;;;;;13.70;10.80;;;;;;;16.51;79.66;99984.47;5021091;28;20492;-74
2022/09/25 11:43:49;;;;;;;12.03;10.83;;;;;;;16.54;79.25;99978.41;5048702;28;20416;-73
2022/09/25 11:46:21;;;;;;;15.77;10.90;;;;;;;16.59;79.17;99981.94;5048515;28;20424;-74
2022/09/25 11:49:14;;;;;;;9.82;8.82;;;;;;;16.53;79.69;99977.59;5041625;28;20397;-74
2022/09/25 11:52:04;;;;;;;9.68;8.15;;;;;;;16.56;79.99;99979.78;5041450;28;20406;-75
2022/09/25 11:55:01;;;;;;;8.27;7.47;;;;;;;16.63;79.94;99978.63;5048846;28;20405;-73
2022/09/25 11:57:35;;;;;;;8.07;7.30;;;;;;;16.69;79.96;99980.16;5050832;28;20409;-73